Terminal Aerodrome Forecast
Issued by NWS

Home | Current Version | Previous Version | Text Only | Print | Product List | Glossary On
Versions: 1 2 3 4 5 6 7 8 9 10 11 12 13
000
FTUS46 KSGX 011135
TAFONT
TAF
KONT 011135Z 0112/0218 VRB04KT P6SM BKN012
     FM011600 VRB06KT 6SM HZ FEW015
     FM012030 25011G18KT P6SM SKC
     FM020400 VRB06KT P6SM SKC
     FM020800 VRB04KT P6SM BKN015
     FM021530 VRB05KT P6SM SCT015=

USA.gov is the U.S. government's official web portal to all federal, state and local government web resources and services.